sensor_id;sensor_type;location;lat;lon;timestamp;temperature;humidity
28677;DHT22;15858;48.338;11.078;2022-12-11T00:00:38;-0.20;99.90
28677;DHT22;15858;48.338;11.078;2022-12-11T00:03:05;-0.20;99.90
28677;DHT22;15858;48.338;11.078;2022-12-11T00:05:41;-0.10;99.90
28677;DHT22;15858;48.338;11.078;2022-12-11T00:08:08;-0.20;99.90
28677;DHT22;15858;48.338;11.078;2022-12-11T00:10:35;-0.20;99.90
28677;DHT22;15858;48.338;11.078;2022-12-11T00:13:04;-0.20;99.90
28677;DHT22;15858;48.338;11.078;2022-12-11T00:15:31;-0.10;99.90
28677;DHT22;15858;48.338;11.078;2022-12-11T00:17:57;-0.10;99.90
28677;DHT22;15858;48.338;11.078;2022-12-11T00:20:24;-0.10;99.90
28677;DHT22;15858;48.338;11.078;2022-12-11T00:22:51;-0.10;99.90
28677;DHT22;15858;48.338;11.078;2022-12-11T00:25:17;-0.10;99.90
28677;DHT22;15858;48.338;11.078;2022-12-11T00:27:45;-0.20;99.90
28677;DHT22;15858;48.338;11.078;2022-12-11T00:30:13;-0.10;99.90
28677;DHT22;15858;48.338;11.078;2022-12-11T00:32:39;-0.20;99.90
28677;DHT22;15858;48.338;11.078;2022-12-11T00:35:06;-0.10;99.90
28677;DHT22;15858;48.338;11.078;2022-12-11T00:37:33;-0.10;99.90
28677;DHT22;15858;48.338;11.078;2022-12-11T00:40:00;-0.10;99.90
28677;DHT22;15858;48.338;11.078;2022-12-11T00:42:26;-0.20;99.90
28677;DHT22;15858;48.338;11.078;2022-12-11T00:44:53;-0.30;99.90
28677;DHT22;15858;48.338;11.078;2022-12-11T00:47:20;-0.20;99.90
28677;DHT22;15858;48.338;11.078;2022-12-11T00:49:46;-0.30;99.90
28677;DHT22;15858;48.338;11.078;2022-12-11T00:52:15;-0.30;99.90
28677;DHT22;15858;48.338;11.078;2022-12-11T00:54:42;-0.30;99.90
28677;DHT22;15858;48.338;11.078;2022-12-11T00:57:09;-0.30;99.90
28677;DHT22;15858;48.338;11.078;2022-12-11T00:59:35;-0.30;99.90
28677;DHT22;15858;48.338;11.078;2022-12-11T01:02:02;-0.40;99.90
28677;DHT22;15858;48.338;11.078;2022-12-11T01:04:29;-0.40;99.90
28677;DHT22;15858;48.338;11.078;2022-12-11T01:06:55;-0.40;99.90
28677;DHT22;15858;48.338;11.078;2022-12-11T01:09:22;-0.30;99.90
28677;DHT22;15858;48.338;11.078;2022-12-11T01:11:49;-0.30;99.90
28677;DHT22;15858;48.338;11.078;2022-12-11T01:14:15;-0.20;99.90
28677;DHT22;15858;48.338;11.078;2022-12-11T01:16:42;-0.30;99.90
28677;DHT22;15858;48.338;11.078;2022-12-11T01:19:08;-0.30;99.90
28677;DHT22;15858;48.338;11.078;2022-12-11T01:21:35;-0.30;99.90
28677;DHT22;15858;48.338;11.078;2022-12-11T01:24:02;-0.30;99.90
28677;DHT22;15858;48.338;11.078;2022-12-11T01:26:28;-0.30;99.90
28677;DHT22;15858;48.338;11.078;2022-12-11T01:28:55;-0.50;99.90
28677;DHT22;15858;48.338;11.078;2022-12-11T01:31:22;-0.50;99.90
28677;DHT22;15858;48.338;11.078;2022-12-11T01:33:48;-0.40;99.90
28677;DHT22;15858;48.338;11.078;2022-12-11T01:36:18;-0.50;99.90
28677;DHT22;15858;48.338;11.078;2022-12-11T01:38:46;-0.50;99.90
28677;DHT22;15858;48.338;11.078;2022-12-11T01:41:14;-0.40;99.90
28677;DHT22;15858;48.338;11.078;2022-12-11T01:44:04;-0.40;99.90
28677;DHT22;15858;48.338;11.078;2022-12-11T01:46:33;-0.40;99.90
28677;DHT22;15858;48.338;11.078;2022-12-11T01:49:02;-0.40;99.90
28677;DHT22;15858;48.338;11.078;2022-12-11T01:51:32;-0.50;99.90
28677;DHT22;15858;48.338;11.078;2022-12-11T01:54:06;-0.40;99.90
28677;DHT22;15858;48.338;11.078;2022-12-11T01:56:35;-0.50;99.90
28677;DHT22;15858;48.338;11.078;2022-12-11T01:59:05;-0.40;99.90
28677;DHT22;15858;48.338;11.078;2022-12-11T02:01:40;-0.50;99.90
28677;DHT22;15858;48.338;11.078;2022-12-11T02:04:08;-0.50;99.90
28677;DHT22;15858;48.338;11.078;2022-12-11T02:06:40;-0.60;99.90
28677;DHT22;15858;48.338;11.078;2022-12-11T02:09:11;-0.50;99.90
28677;DHT22;15858;48.338;11.078;2022-12-11T02:11:55;-0.40;99.90
28677;DHT22;15858;48.338;11.078;2022-12-11T02:25:13;-0.50;99.90
28677;DHT22;15858;48.338;11.078;2022-12-11T02:31:06;-0.50;99.90
28677;DHT22;15858;48.338;11.078;2022-12-11T02:33:47;-0.50;99.90
28677;DHT22;15858;48.338;11.078;2022-12-11T02:36:17;-0.50;99.90
28677;DHT22;15858;48.338;11.078;2022-12-11T02:38:47;-0.50;99.90
28677;DHT22;15858;48.338;11.078;2022-12-11T02:41:16;-0.50;99.90
28677;DHT22;15858;48.338;11.078;2022-12-11T02:43:45;-0.50;99.90
28677;DHT22;15858;48.338;11.078;2022-12-11T02:46:13;-0.40;99.90
28677;DHT22;15858;48.338;11.078;2022-12-11T02:48:42;-0.50;99.90
28677;DHT22;15858;48.338;11.078;2022-12-11T02:51:10;-0.50;99.90
28677;DHT22;15858;48.338;11.078;2022-12-11T02:53:39;-0.50;99.90
28677;DHT22;15858;48.338;11.078;2022-12-11T02:56:13;-0.50;99.90
28677;DHT22;15858;48.338;11.078;2022-12-11T02:58:47;-0.50;99.90
28677;DHT22;15858;48.338;11.078;2022-12-11T03:01:13;-0.40;99.90
28677;DHT22;15858;48.338;11.078;2022-12-11T03:03:40;-0.40;99.90
28677;DHT22;15858;48.338;11.078;2022-12-11T03:06:09;-0.40;99.90
28677;DHT22;15858;48.338;11.078;2022-12-11T03:08:38;-0.40;99.90
28677;DHT22;15858;48.338;11.078;2022-12-11T03:11:09;-0.40;99.90
28677;DHT22;15858;48.338;11.078;2022-12-11T03:13:36;-0.40;99.90
28677;DHT22;15858;48.338;11.078;2022-12-11T03:16:23;-0.40;99.90
28677;DHT22;15858;48.338;11.078;2022-12-11T03:22:10;-0.50;99.90
28677;DHT22;15858;48.338;11.078;2022-12-11T03:24:43;-0.50;99.90
28677;DHT22;15858;48.338;11.078;2022-12-11T03:27:32;-0.50;99.90
28677;DHT22;15858;48.338;11.078;2022-12-11T03:30:12;-0.60;99.90
28677;DHT22;15858;48.338;11.078;2022-12-11T03:32:43;-0.60;99.90
28677;DHT22;15858;48.338;11.078;2022-12-11T03:36:00;-0.60;99.90
28677;DHT22;15858;48.338;11.078;2022-12-11T03:38:14;-0.50;99.90
28677;DHT22;15858;48.338;11.078;2022-12-11T03:40:44;-0.50;99.90
28677;DHT22;15858;48.338;11.078;2022-12-11T03:43:11;-0.50;99.90
28677;DHT22;15858;48.338;11.078;2022-12-11T03:45:39;-0.50;99.90
28677;DHT22;15858;48.338;11.078;2022-12-11T03:48:08;-0.50;99.90
28677;DHT22;15858;48.338;11.078;2022-12-11T03:50:36;-0.50;99.90
28677;DHT22;15858;48.338;11.078;2022-12-11T03:53:03;-0.50;99.90
28677;DHT22;15858;48.338;11.078;2022-12-11T03:55:31;-0.50;99.90
28677;DHT22;15858;48.338;11.078;2022-12-11T03:57:58;-0.40;99.90
28677;DHT22;15858;48.338;11.078;2022-12-11T04:00:25;-0.50;99.90
28677;DHT22;15858;48.338;11.078;2022-12-11T04:02:52;-0.50;99.90
28677;DHT22;15858;48.338;11.078;2022-12-11T04:05:18;-0.50;99.90
28677;DHT22;15858;48.338;11.078;2022-12-11T04:07:45;-0.50;99.90
28677;DHT22;15858;48.338;11.078;2022-12-11T04:10:11;-0.50;99.90
28677;DHT22;15858;48.338;11.078;2022-12-11T04:12:38;-0.50;99.90
28677;DHT22;15858;48.338;11.078;2022-12-11T04:15:05;-0.50;99.90
28677;DHT22;15858;48.338;11.078;2022-12-11T04:17:34;-0.50;99.90
28677;DHT22;15858;48.338;11.078;2022-12-11T04:20:01;-0.50;99.90
28677;DHT22;15858;48.338;11.078;2022-12-11T04:22:27;-0.40;99.90
28677;DHT22;15858;48.338;11.078;2022-12-11T04:24:54;-0.50;99.90
28677;DHT22;15858;48.338;11.078;2022-12-11T04:27:21;-0.40;99.90
28677;DHT22;15858;48.338;11.078;2022-12-11T04:29:47;-0.40;99.90
28677;DHT22;15858;48.338;11.078;2022-12-11T04:32:14;-0.40;99.90
28677;DHT22;15858;48.338;11.078;2022-12-11T04:34:40;-0.40;99.90
28677;DHT22;15858;48.338;11.078;2022-12-11T04:37:07;-0.50;99.90
28677;DHT22;15858;48.338;11.078;2022-12-11T04:39:34;-0.60;99.90
28677;DHT22;15858;48.338;11.078;2022-12-11T04:42:00;-0.60;99.90
28677;DHT22;15858;48.338;11.078;2022-12-11T04:44:27;-0.60;99.90
28677;DHT22;15858;48.338;11.078;2022-12-11T04:46:53;-0.60;99.90
28677;DHT22;15858;48.338;11.078;2022-12-11T04:49:20;-0.60;99.90
28677;DHT22;15858;48.338;11.078;2022-12-11T04:51:46;-0.60;99.90
28677;DHT22;15858;48.338;11.078;2022-12-11T04:54:13;-0.60;99.90
28677;DHT22;15858;48.338;11.078;2022-12-11T04:56:40;-0.60;99.90
28677;DHT22;15858;48.338;11.078;2022-12-11T04:59:06;-0.60;99.90
28677;DHT22;15858;48.338;11.078;2022-12-11T05:01:33;-0.60;99.90
28677;DHT22;15858;48.338;11.078;2022-12-11T05:04:00;-0.60;99.90
28677;DHT22;15858;48.338;11.078;2022-12-11T05:06:26;-0.60;99.90
28677;DHT22;15858;48.338;11.078;2022-12-11T05:08:53;-0.60;99.90
28677;DHT22;15858;48.338;11.078;2022-12-11T05:11:20;-0.60;99.90
28677;DHT22;15858;48.338;11.078;2022-12-11T05:13:46;-0.60;99.90
28677;DHT22;15858;48.338;11.078;2022-12-11T05:16:15;-0.60;99.90
28677;DHT22;15858;48.338;11.078;2022-12-11T05:18:42;-0.60;99.90
28677;DHT22;15858;48.338;11.078;2022-12-11T05:21:11;-0.60;99.90
28677;DHT22;15858;48.338;11.078;2022-12-11T05:23:38;-0.60;99.90
28677;DHT22;15858;48.338;11.078;2022-12-11T05:26:16;-0.60;99.90
28677;DHT22;15858;48.338;11.078;2022-12-11T05:28:43;-0.60;99.90
28677;DHT22;15858;48.338;11.078;2022-12-11T05:31:19;-0.60;99.90
28677;DHT22;15858;48.338;11.078;2022-12-11T05:33:47;-0.70;99.90
28677;DHT22;15858;48.338;11.078;2022-12-11T05:36:22;-0.70;99.90
28677;DHT22;15858;48.338;11.078;2022-12-11T05:38:49;-0.60;99.90
28677;DHT22;15858;48.338;11.078;2022-12-11T05:41:18;-0.60;99.90
28677;DHT22;15858;48.338;11.078;2022-12-11T05:43:45;-0.70;99.90
28677;DHT22;15858;48.338;11.078;2022-12-11T05:46:14;-0.70;99.90
28677;DHT22;15858;48.338;11.078;2022-12-11T05:48:44;-0.70;99.90
28677;DHT22;15858;48.338;11.078;2022-12-11T05:51:12;-0.70;99.90
28677;DHT22;15858;48.338;11.078;2022-12-11T05:53:41;-0.80;99.90
28677;DHT22;15858;48.338;11.078;2022-12-11T05:56:17;-0.70;99.90
28677;DHT22;15858;48.338;11.078;2022-12-11T05:58:47;-0.70;99.90
28677;DHT22;15858;48.338;11.078;2022-12-11T06:01:21;-0.70;99.90
28677;DHT22;15858;48.338;11.078;2022-12-11T06:03:47;-0.70;99.90
28677;DHT22;15858;48.338;11.078;2022-12-11T06:06:14;-0.70;99.90
28677;DHT22;15858;48.338;11.078;2022-12-11T06:08:41;-0.70;99.90
28677;DHT22;15858;48.338;11.078;2022-12-11T06:11:11;-0.70;99.90
28677;DHT22;15858;48.338;11.078;2022-12-11T06:13:38;-0.80;99.90
28677;DHT22;15858;48.338;11.078;2022-12-11T06:16:05;-0.80;99.90
28677;DHT22;15858;48.338;11.078;2022-12-11T06:18:37;-0.80;99.90
28677;DHT22;15858;48.338;11.078;2022-12-11T06:23:37;-0.90;99.90
28677;DHT22;15858;48.338;11.078;2022-12-11T06:26:04;-1.00;99.90
28677;DHT22;15858;48.338;11.078;2022-12-11T06:28:31;-0.90;99.90
28677;DHT22;15858;48.338;11.078;2022-12-11T06:30:58;-0.80;99.90
28677;DHT22;15858;48.338;11.078;2022-12-11T06:33:25;-0.80;99.90
28677;DHT22;15858;48.338;11.078;2022-12-11T06:35:51;-0.90;99.90
28677;DHT22;15858;48.338;11.078;2022-12-11T06:38:18;-0.80;99.90
28677;DHT22;15858;48.338;11.078;2022-12-11T06:40:45;-0.90;99.90
28677;DHT22;15858;48.338;11.078;2022-12-11T06:43:19;-0.80;99.90
28677;DHT22;15858;48.338;11.078;2022-12-11T06:45:45;-0.90;99.90
28677;DHT22;15858;48.338;11.078;2022-12-11T06:48:12;-1.00;99.90
28677;DHT22;15858;48.338;11.078;2022-12-11T06:50:39;-1.00;99.90
28677;DHT22;15858;48.338;11.078;2022-12-11T06:53:05;-1.00;99.90
28677;DHT22;15858;48.338;11.078;2022-12-11T06:55:35;-1.00;99.90
28677;DHT22;15858;48.338;11.078;2022-12-11T06:58:03;-1.00;99.90
28677;DHT22;15858;48.338;11.078;2022-12-11T07:00:29;-0.90;99.90
28677;DHT22;15858;48.338;11.078;2022-12-11T07:02:56;-1.00;99.90
28677;DHT22;15858;48.338;11.078;2022-12-11T07:05:23;-0.90;99.90
28677;DHT22;15858;48.338;11.078;2022-12-11T07:07:52;-0.90;99.90
28677;DHT22;15858;48.338;11.078;2022-12-11T07:10:20;-1.00;99.90
28677;DHT22;15858;48.338;11.078;2022-12-11T07:12:46;-1.00;99.90
28677;DHT22;15858;48.338;11.078;2022-12-11T07:15:13;-1.10;99.90
28677;DHT22;15858;48.338;11.078;2022-12-11T07:17:40;-1.10;99.90
28677;DHT22;15858;48.338;11.078;2022-12-11T07:20:07;-1.00;99.90
28677;DHT22;15858;48.338;11.078;2022-12-11T07:22:33;-1.10;99.90
28677;DHT22;15858;48.338;11.078;2022-12-11T07:25:00;-1.10;99.90
28677;DHT22;15858;48.338;11.078;2022-12-11T07:27:27;-1.30;99.90
28677;DHT22;15858;48.338;11.078;2022-12-11T07:29:54;-1.30;99.90
28677;DHT22;15858;48.338;11.078;2022-12-11T07:32:21;-1.30;99.90
28677;DHT22;15858;48.338;11.078;2022-12-11T07:34:48;-1.30;99.90
28677;DHT22;15858;48.338;11.078;2022-12-11T07:37:17;-1.30;99.90
28677;DHT22;15858;48.338;11.078;2022-12-11T07:39:44;-1.30;99.90
28677;DHT22;15858;48.338;11.078;2022-12-11T07:42:10;-1.30;99.90
28677;DHT22;15858;48.338;11.078;2022-12-11T07:44:37;-1.30;99.90
28677;DHT22;15858;48.338;11.078;2022-12-11T07:47:04;-1.20;99.90
28677;DHT22;15858;48.338;11.078;2022-12-11T07:49:30;-1.20;99.90
28677;DHT22;15858;48.338;11.078;2022-12-11T07:51:57;-1.20;99.90
28677;DHT22;15858;48.338;11.078;2022-12-11T07:54:23;-1.20;99.90
28677;DHT22;15858;48.338;11.078;2022-12-11T07:56:51;-1.20;99.90
28677;DHT22;15858;48.338;11.078;2022-12-11T07:59:19;-1.20;99.90
28677;DHT22;15858;48.338;11.078;2022-12-11T08:01:46;-1.20;99.90
28677;DHT22;15858;48.338;11.078;2022-12-11T08:04:13;-1.20;99.90
28677;DHT22;15858;48.338;11.078;2022-12-11T08:06:39;-1.20;99.90
28677;DHT22;15858;48.338;11.078;2022-12-11T08:09:09;-1.30;99.90
28677;DHT22;15858;48.338;11.078;2022-12-11T08:11:44;-1.40;99.90
28677;DHT22;15858;48.338;11.078;2022-12-11T08:14:11;-1.40;99.90
28677;DHT22;15858;48.338;11.078;2022-12-11T08:16:37;-1.40;99.90
28677;DHT22;15858;48.338;11.078;2022-12-11T08:19:04;-1.40;99.90
28677;DHT22;15858;48.338;11.078;2022-12-11T08:21:31;-1.50;99.90
28677;DHT22;15858;48.338;11.078;2022-12-11T08:23:57;-1.60;99.90
28677;DHT22;15858;48.338;11.078;2022-12-11T08:26:26;-1.50;99.90
28677;DHT22;15858;48.338;11.078;2022-12-11T08:28:53;-1.50;99.90
28677;DHT22;15858;48.338;11.078;2022-12-11T08:31:21;-1.50;99.90
28677;DHT22;15858;48.338;11.078;2022-12-11T08:33:49;-1.50;99.90
28677;DHT22;15858;48.338;11.078;2022-12-11T08:36:18;-1.50;99.90
28677;DHT22;15858;48.338;11.078;2022-12-11T08:38:46;-1.50;99.90
28677;DHT22;15858;48.338;11.078;2022-12-11T08:41:18;-1.50;99.90
28677;DHT22;15858;48.338;11.078;2022-12-11T08:43:46;-1.50;99.90
28677;DHT22;15858;48.338;11.078;2022-12-11T08:46:13;-1.40;99.90
28677;DHT22;15858;48.338;11.078;2022-12-11T08:48:42;-1.40;99.90
28677;DHT22;15858;48.338;11.078;2022-12-11T08:51:14;-1.30;99.90
28677;DHT22;15858;48.338;11.078;2022-12-11T08:53:41;-1.30;99.90
28677;DHT22;15858;48.338;11.078;2022-12-11T08:56:14;-1.40;99.90
28677;DHT22;15858;48.338;11.078;2022-12-11T08:58:41;-1.40;99.90
28677;DHT22;15858;48.338;11.078;2022-12-11T09:01:22;-1.40;99.90
28677;DHT22;15858;48.338;11.078;2022-12-11T09:03:50;-1.30;99.90
28677;DHT22;15858;48.338;11.078;2022-12-11T09:06:19;-1.30;99.90
28677;DHT22;15858;48.338;11.078;2022-12-11T09:08:47;-1.20;99.90
28677;DHT22;15858;48.338;11.078;2022-12-11T09:11:24;-1.20;99.90
28677;DHT22;15858;48.338;11.078;2022-12-11T09:13:52;-1.10;99.90
28677;DHT22;15858;48.338;11.078;2022-12-11T09:16:20;-1.00;99.90
28677;DHT22;15858;48.338;11.078;2022-12-11T09:18:49;-1.10;99.90
28677;DHT22;15858;48.338;11.078;2022-12-11T09:21:20;-1.10;99.90
28677;DHT22;15858;48.338;11.078;2022-12-11T09:23:47;-1.00;99.90
28677;DHT22;15858;48.338;11.078;2022-12-11T09:26:16;-1.00;99.90
28677;DHT22;15858;48.338;11.078;2022-12-11T09:28:44;-0.90;99.90
28677;DHT22;15858;48.338;11.078;2022-12-11T09:31:24;-0.80;99.90
28677;DHT22;15858;48.338;11.078;2022-12-11T09:33:54;-0.70;99.90
28677;DHT22;15858;48.338;11.078;2022-12-11T09:36:21;-0.60;99.90
28677;DHT22;15858;48.338;11.078;2022-12-11T09:38:48;-0.60;99.90
28677;DHT22;15858;48.338;11.078;2022-12-11T09:46:17;-0.60;99.90
28677;DHT22;15858;48.338;11.078;2022-12-11T09:48:48;-0.50;99.90
28677;DHT22;15858;48.338;11.078;2022-12-11T09:51:25;-0.50;99.90
28677;DHT22;15858;48.338;11.078;2022-12-11T09:53:55;-0.40;99.90
28677;DHT22;15858;48.338;11.078;2022-12-11T09:56:30;-0.40;99.90
28677;DHT22;15858;48.338;11.078;2022-12-11T09:59:04;-0.40;99.90
28677;DHT22;15858;48.338;11.078;2022-12-11T10:15:30;-0.50;99.90
28677;DHT22;15858;48.338;11.078;2022-12-11T10:18:01;-0.50;99.90
28677;DHT22;15858;48.338;11.078;2022-12-11T10:20:33;-0.60;99.90
28677;DHT22;15858;48.338;11.078;2022-12-11T10:23:01;-0.60;99.90
28677;DHT22;15858;48.338;11.078;2022-12-11T10:25:31;-0.50;99.90
28677;DHT22;15858;48.338;11.078;2022-12-11T10:28:07;-0.40;99.90
28677;DHT22;15858;48.338;11.078;2022-12-11T10:30:37;-0.30;99.90
28677;DHT22;15858;48.338;11.078;2022-12-11T10:33:17;-0.30;99.90
28677;DHT22;15858;48.338;11.078;2022-12-11T10:35:52;-0.20;99.90
28677;DHT22;15858;48.338;11.078;2022-12-11T10:38:26;-0.20;99.90
28677;DHT22;15858;48.338;11.078;2022-12-11T10:40:58;-0.20;99.90
28677;DHT22;15858;48.338;11.078;2022-12-11T10:43:34;-0.20;99.90
28677;DHT22;15858;48.338;11.078;2022-12-11T10:46:01;-0.20;99.90
28677;DHT22;15858;48.338;11.078;2022-12-11T10:48:28;-0.20;99.90
28677;DHT22;15858;48.338;11.078;2022-12-11T10:51:05;-0.30;99.90
28677;DHT22;15858;48.338;11.078;2022-12-11T10:53:32;-0.50;99.90
28677;DHT22;15858;48.338;11.078;2022-12-11T10:55:59;-0.60;99.90
28677;DHT22;15858;48.338;11.078;2022-12-11T10:58:31;-0.60;99.90
28677;DHT22;15858;48.338;11.078;2022-12-11T11:03:28;-0.50;99.90
28677;DHT22;15858;48.338;11.078;2022-12-11T11:06:21;-0.30;99.90
28677;DHT22;15858;48.338;11.078;2022-12-11T11:08:57;-0.30;99.90
28677;DHT22;15858;48.338;11.078;2022-12-11T11:11:36;-0.20;99.90
28677;DHT22;15858;48.338;11.078;2022-12-11T11:14:11;0.10;99.90
28677;DHT22;15858;48.338;11.078;2022-12-11T11:16:40;0.30;99.90
28677;DHT22;15858;48.338;11.078;2022-12-11T11:19:37;0.70;99.90
28677;DHT22;15858;48.338;11.078;2022-12-11T11:22:14;1.20;99.90
28677;DHT22;15858;48.338;11.078;2022-12-11T11:24:45;1.30;99.90
28677;DHT22;15858;48.338;11.078;2022-12-11T11:27:43;1.40;99.90
28677;DHT22;15858;48.338;11.078;2022-12-11T11:32:53;1.00;99.90
28677;DHT22;15858;48.338;11.078;2022-12-11T11:35:23;1.00;99.90
28677;DHT22;15858;48.338;11.078;2022-12-11T11:38:04;0.90;99.90
28677;DHT22;15858;48.338;11.078;2022-12-11T11:40:45;1.00;99.90
28677;DHT22;15858;48.338;11.078;2022-12-11T11:51:53;0.20;99.90
28677;DHT22;15858;48.338;11.078;2022-12-11T11:54:39;0.10;99.90
28677;DHT22;15858;48.338;11.078;2022-12-11T11:57:19;0.10;99.90
28677;DHT22;15858;48.338;11.078;2022-12-11T11:59:55;0.00;99.90
28677;DHT22;15858;48.338;11.078;2022-12-11T12:02:22;0.00;99.90
28677;DHT22;15858;48.338;11.078;2022-12-11T12:04:49;-0.10;99.90
28677;DHT22;15858;48.338;11.078;2022-12-11T12:07:36;-0.10;99.90
28677;DHT22;15858;48.338;11.078;2022-12-11T12:12:59;0.00;99.90
28677;DHT22;15858;48.338;11.078;2022-12-11T12:15:38;0.00;99.90
28677;DHT22;15858;48.338;11.078;2022-12-11T12:18:18;0.00;99.90
28677;DHT22;15858;48.338;11.078;2022-12-11T12:24:44;0.10;99.90
28677;DHT22;15858;48.338;11.078;2022-12-11T12:27:12;0.00;99.90
28677;DHT22;15858;48.338;11.078;2022-12-11T12:30:11;0.10;99.90
28677;DHT22;15858;48.338;11.078;2022-12-11T12:33:00;0.00;99.90
28677;DHT22;15858;48.338;11.078;2022-12-11T12:35:39;0.00;99.90
28677;DHT22;15858;48.338;11.078;2022-12-11T12:40:47;0.00;99.90
28677;DHT22;15858;48.338;11.078;2022-12-11T12:49:13;0.00;99.90
28677;DHT22;15858;48.338;11.078;2022-12-11T12:51:41;0.00;99.90
28677;DHT22;15858;48.338;11.078;2022-12-11T12:54:11;0.10;99.90
28677;DHT22;15858;48.338;11.078;2022-12-11T12:56:40;0.10;99.90
28677;DHT22;15858;48.338;11.078;2022-12-11T12:59:24;0.10;99.90
28677;DHT22;15858;48.338;11.078;2022-12-11T13:01:57;0.00;99.90
28677;DHT22;15858;48.338;11.078;2022-12-11T13:04:37;-0.10;99.90
28677;DHT22;15858;48.338;11.078;2022-12-11T13:07:26;-0.10;99.90
28677;DHT22;15858;48.338;11.078;2022-12-11T13:10:03;-0.10;99.90
28677;DHT22;15858;48.338;11.078;2022-12-11T13:12:41;-0.10;99.90
28677;DHT22;15858;48.338;11.078;2022-12-11T13:15:36;0.00;99.90
28677;DHT22;15858;48.338;11.078;2022-12-11T13:18:27;-0.20;99.90
28677;DHT22;15858;48.338;11.078;2022-12-11T13:20:51;-0.20;99.90
28677;DHT22;15858;48.338;11.078;2022-12-11T13:23:37;-0.20;99.90
28677;DHT22;15858;48.338;11.078;2022-12-11T13:26:04;-0.20;99.90
28677;DHT22;15858;48.338;11.078;2022-12-11T13:28:45;-0.10;99.90
28677;DHT22;15858;48.338;11.078;2022-12-11T13:33:47;-0.10;99.90
28677;DHT22;15858;48.338;11.078;2022-12-11T13:36:24;-0.20;99.90
28677;DHT22;15858;48.338;11.078;2022-12-11T13:38:55;-0.20;99.90
28677;DHT22;15858;48.338;11.078;2022-12-11T13:41:24;-0.20;99.90
28677;DHT22;15858;48.338;11.078;2022-12-11T13:43:51;-0.20;99.90
28677;DHT22;15858;48.338;11.078;2022-12-11T13:46:22;-0.30;99.90
28677;DHT22;15858;48.338;11.078;2022-12-11T13:48:55;-0.30;99.90
28677;DHT22;15858;48.338;11.078;2022-12-11T13:51:24;-0.40;99.90
28677;DHT22;15858;48.338;11.078;2022-12-11T13:56:32;-0.30;99.90
28677;DHT22;15858;48.338;11.078;2022-12-11T13:58:59;-0.30;99.90
28677;DHT22;15858;48.338;11.078;2022-12-11T14:01:33;-0.30;99.90
28677;DHT22;15858;48.338;11.078;2022-12-11T14:04:05;-0.20;99.90
28677;DHT22;15858;48.338;11.078;2022-12-11T14:06:33;-0.30;99.90
28677;DHT22;15858;48.338;11.078;2022-12-11T14:09:02;-0.20;99.90
28677;DHT22;15858;48.338;11.078;2022-12-11T14:11:35;-0.30;99.90
28677;DHT22;15858;48.338;11.078;2022-12-11T14:14:05;-0.30;99.90
28677;DHT22;15858;48.338;11.078;2022-12-11T14:16:33;-0.30;99.90
28677;DHT22;15858;48.338;11.078;2022-12-11T14:19:07;-0.30;99.90
28677;DHT22;15858;48.338;11.078;2022-12-11T14:21:35;-0.30;99.90
28677;DHT22;15858;48.338;11.078;2022-12-11T14:24:02;-0.30;99.90
28677;DHT22;15858;48.338;11.078;2022-12-11T14:26:32;-0.40;99.90
28677;DHT22;15858;48.338;11.078;2022-12-11T14:28:59;-0.40;99.90
28677;DHT22;15858;48.338;11.078;2022-12-11T14:36:35;-0.40;99.90
28677;DHT22;15858;48.338;11.078;2022-12-11T14:39:06;-0.50;99.90
28677;DHT22;15858;48.338;11.078;2022-12-11T14:41:46;-0.50;99.90
28677;DHT22;15858;48.338;11.078;2022-12-11T14:44:16;-0.60;99.90
28677;DHT22;15858;48.338;11.078;2022-12-11T14:46:46;-0.60;99.90
28677;DHT22;15858;48.338;11.078;2022-12-11T14:49:25;-0.70;99.90
28677;DHT22;15858;48.338;11.078;2022-12-11T14:51:54;-0.70;99.90
28677;DHT22;15858;48.338;11.078;2022-12-11T14:54:39;-0.60;99.90
28677;DHT22;15858;48.338;11.078;2022-12-11T14:57:07;-0.60;99.90
28677;DHT22;15858;48.338;11.078;2022-12-11T14:59:43;-0.60;99.90
28677;DHT22;15858;48.338;11.078;2022-12-11T15:05:06;-0.60;99.90
28677;DHT22;15858;48.338;11.078;2022-12-11T15:07:33;-0.70;99.90
28677;DHT22;15858;48.338;11.078;2022-12-11T15:09:59;-0.70;99.90
28677;DHT22;15858;48.338;11.078;2022-12-11T15:12:26;-0.80;99.90
28677;DHT22;15858;48.338;11.078;2022-12-11T15:14:58;-0.80;99.90
28677;DHT22;15858;48.338;11.078;2022-12-11T15:17:26;-0.70;99.90
28677;DHT22;15858;48.338;11.078;2022-12-11T15:19:55;-0.80;99.90
28677;DHT22;15858;48.338;11.078;2022-12-11T15:22:29;-0.80;99.90
28677;DHT22;15858;48.338;11.078;2022-12-11T15:24:57;-0.70;99.90
28677;DHT22;15858;48.338;11.078;2022-12-11T15:27:37;-0.80;99.90
28677;DHT22;15858;48.338;11.078;2022-12-11T15:32:44;-0.70;99.90
28677;DHT22;15858;48.338;11.078;2022-12-11T15:35:25;-0.80;99.90
28677;DHT22;15858;48.338;11.078;2022-12-11T15:37:54;-0.80;99.90
28677;DHT22;15858;48.338;11.078;2022-12-11T15:40:21;-0.80;99.90
28677;DHT22;15858;48.338;11.078;2022-12-11T15:42:48;-0.80;99.90
28677;DHT22;15858;48.338;11.078;2022-12-11T15:45:24;-0.80;99.90
28677;DHT22;15858;48.338;11.078;2022-12-11T15:47:51;-0.80;99.90
28677;DHT22;15858;48.338;11.078;2022-12-11T15:50:19;-0.80;99.90
28677;DHT22;15858;48.338;11.078;2022-12-11T15:52:47;-0.80;99.90
28677;DHT22;15858;48.338;11.078;2022-12-11T15:55:14;-0.80;99.90
28677;DHT22;15858;48.338;11.078;2022-12-11T15:57:53;-0.80;99.90
28677;DHT22;15858;48.338;11.078;2022-12-11T16:00:21;-0.90;99.90
28677;DHT22;15858;48.338;11.078;2022-12-11T16:02:48;-0.80;99.90
28677;DHT22;15858;48.338;11.078;2022-12-11T16:05:14;-0.80;99.90
28677;DHT22;15858;48.338;11.078;2022-12-11T16:07:41;-0.90;99.90
28677;DHT22;15858;48.338;11.078;2022-12-11T16:10:14;-0.90;99.90
28677;DHT22;15858;48.338;11.078;2022-12-11T16:12:41;-0.90;99.90
28677;DHT22;15858;48.338;11.078;2022-12-11T16:15:08;-0.90;99.90
28677;DHT22;15858;48.338;11.078;2022-12-11T16:17:35;-0.90;99.90
28677;DHT22;15858;48.338;11.078;2022-12-11T16:20:02;-0.90;99.90
28677;DHT22;15858;48.338;11.078;2022-12-11T16:22:29;-0.90;99.90
28677;DHT22;15858;48.338;11.078;2022-12-11T16:24:56;-0.90;99.90
28677;DHT22;15858;48.338;11.078;2022-12-11T16:27:23;-0.90;99.90
28677;DHT22;15858;48.338;11.078;2022-12-11T16:29:49;-1.00;99.90
28677;DHT22;15858;48.338;11.078;2022-12-11T16:32:17;-1.00;99.90
28677;DHT22;15858;48.338;11.078;2022-12-11T16:34:43;-1.00;99.90
28677;DHT22;15858;48.338;11.078;2022-12-11T16:37:10;-1.00;99.90
28677;DHT22;15858;48.338;11.078;2022-12-11T16:39:37;-0.90;99.90
28677;DHT22;15858;48.338;11.078;2022-12-11T16:42:04;-0.90;99.90
28677;DHT22;15858;48.338;11.078;2022-12-11T16:44:31;-1.00;99.90
28677;DHT22;15858;48.338;11.078;2022-12-11T16:46:58;-1.00;99.90
28677;DHT22;15858;48.338;11.078;2022-12-11T16:49:25;-1.00;99.90
28677;DHT22;15858;48.338;11.078;2022-12-11T16:51:51;-1.00;99.90
28677;DHT22;15858;48.338;11.078;2022-12-11T16:54:18;-1.00;99.90
28677;DHT22;15858;48.338;11.078;2022-12-11T16:56:45;-1.00;99.90
28677;DHT22;15858;48.338;11.078;2022-12-11T16:59:11;-1.00;99.90